createdAt,value
2018-07-11T00:01:17.469Z,22.70
2018-07-11T00:03:48.454Z,21.80
2018-07-11T00:06:18.540Z,22.35
2018-07-11T00:08:47.534Z,25.12
2018-07-11T00:11:16.523Z,24.63
2018-07-11T00:13:46.353Z,24.37
2018-07-11T00:16:17.167Z,23.38
2018-07-11T00:18:45.850Z,30.10
2018-07-11T00:21:14.606Z,29.15
2018-07-11T00:23:43.211Z,30.65
2018-07-11T00:26:12.800Z,26.82
2018-07-11T00:28:41.959Z,30.88
2018-07-11T00:31:10.619Z,25.45
2018-07-11T00:33:39.513Z,27.05
2018-07-11T00:36:08.706Z,28.45
2018-07-11T00:38:37.186Z,32.70
2018-07-11T00:41:06.797Z,34.23
2018-07-11T00:43:35.712Z,33.15
2018-07-11T00:46:05.360Z,32.23
2018-07-11T00:48:34.655Z,34.05
2018-07-11T00:51:03.857Z,30.35
2018-07-11T00:53:34.127Z,29.85
2018-07-11T00:56:03.126Z,27.07
2018-07-11T00:58:36.284Z,27.32
2018-07-11T01:01:12.559Z,27.48
2018-07-11T01:03:43.571Z,24.55
2018-07-11T01:06:12.222Z,27.45
2018-07-11T01:08:42.150Z,22.67
2018-07-11T01:11:15.133Z,24.47
2018-07-11T01:13:44.873Z,25.50
2018-07-11T01:16:15.821Z,21.65
2018-07-11T01:18:47.294Z,24.05
2018-07-11T01:21:16.170Z,21.75
2018-07-11T01:23:44.872Z,24.50
2018-07-11T01:26:14.975Z,25.82
2018-07-11T01:28:43.997Z,23.27
2018-07-11T01:31:12.568Z,23.65
2018-07-11T01:33:41.170Z,22.67
2018-07-11T01:36:09.992Z,28.07
2018-07-11T01:38:39.190Z,23.77
2018-07-11T01:41:08.312Z,26.23
2018-07-11T01:43:36.945Z,25.10
2018-07-11T01:46:05.830Z,29.05
2018-07-11T01:48:34.441Z,25.10
2018-07-11T01:51:03.380Z,23.77
2018-07-11T01:53:31.993Z,24.32
2018-07-11T01:56:00.774Z,31.65
2018-07-11T01:58:29.691Z,28.47
2018-07-11T02:00:58.571Z,27.13
2018-07-11T02:03:27.162Z,29.15
2018-07-11T02:05:56.220Z,26.48
2018-07-11T02:08:25.444Z,25.65
2018-07-11T02:10:54.417Z,24.92
2018-07-11T02:13:23.092Z,25.20
2018-07-11T02:15:52.433Z,23.92
2018-07-11T02:18:24.499Z,22.98
2018-07-11T02:20:53.457Z,24.30
2018-07-11T02:23:22.730Z,23.32
2018-07-11T02:25:51.504Z,24.67
2018-07-11T02:28:20.567Z,24.82
2018-07-11T02:30:49.869Z,26.17
2018-07-11T02:33:18.631Z,23.47
2018-07-11T02:35:47.658Z,23.73
2018-07-11T02:38:15.921Z,24.10
2018-07-11T02:40:45.084Z,25.60
2018-07-11T02:43:14.069Z,24.77
2018-07-11T02:45:42.679Z,25.88
2018-07-11T02:48:11.369Z,28.00
2018-07-11T02:50:40.174Z,26.93
2018-07-11T02:53:10.077Z,30.00
2018-07-11T02:55:38.810Z,22.77
2018-07-11T02:58:07.904Z,31.55
2018-07-11T03:00:36.544Z,31.82
2018-07-11T03:03:10.674Z,26.30
2018-07-11T03:05:39.954Z,27.17
2018-07-11T03:08:09.154Z,30.85
2018-07-11T03:10:38.074Z,29.00
2018-07-11T03:13:07.314Z,29.12
2018-07-11T03:15:35.899Z,28.55
2018-07-11T03:18:04.609Z,28.60
2018-07-11T03:20:33.903Z,28.50
2018-07-11T03:23:02.571Z,31.80
2018-07-11T03:25:31.169Z,29.65
2018-07-11T03:27:59.781Z,33.53
2018-07-11T03:30:28.505Z,37.23
2018-07-11T03:32:57.129Z,32.67
2018-07-11T03:35:25.825Z,31.50
2018-07-11T03:37:54.632Z,28.52
2018-07-11T03:40:23.333Z,31.65
2018-07-11T03:42:52.181Z,33.33
2018-07-11T03:45:20.782Z,33.20
2018-07-11T03:47:50.266Z,33.42
2018-07-11T03:50:19.619Z,29.20
2018-07-11T03:52:49.304Z,30.88
2018-07-11T03:55:17.951Z,24.67
2018-07-11T03:57:46.667Z,29.77
2018-07-11T04:00:15.375Z,29.00
2018-07-11T04:02:44.046Z,30.10
2018-07-11T04:05:12.681Z,37.85
2018-07-11T04:07:41.344Z,31.35
2018-07-11T04:10:09.999Z,26.35
2018-07-11T04:12:38.968Z,26.37
2018-07-11T04:15:08.226Z,29.05
2018-07-11T04:17:37.461Z,24.63
2018-07-11T04:20:06.177Z,24.20
2018-07-11T04:22:34.811Z,24.60
2018-07-11T04:25:03.090Z,23.47
2018-07-11T04:27:31.740Z,22.20
2018-07-11T04:30:00.705Z,24.23
2018-07-11T04:32:29.835Z,21.30
2018-07-11T04:34:58.484Z,21.17
2018-07-11T04:37:26.747Z,23.92
2018-07-11T04:39:55.561Z,23.47
2018-07-11T04:42:24.248Z,22.87
2018-07-11T04:44:52.905Z,25.92
2018-07-11T04:47:21.672Z,23.50
2018-07-11T04:49:50.539Z,22.67
2018-07-11T04:52:20.073Z,22.55
2018-07-11T04:54:48.831Z,22.07
2018-07-11T04:57:17.884Z,25.25
2018-07-11T04:59:46.523Z,25.25
2018-07-11T05:02:15.324Z,26.42
2018-07-11T05:04:44.484Z,25.77
2018-07-11T05:07:13.117Z,28.23
2018-07-11T05:09:41.726Z,26.27
2018-07-11T05:12:10.408Z,23.98
2018-07-11T05:14:39.210Z,25.02
2018-07-11T05:17:08.084Z,22.42
2018-07-11T05:19:36.681Z,25.30
2018-07-11T05:22:05.280Z,29.40
2018-07-11T05:24:34.366Z,28.57
2018-07-11T05:27:03.582Z,29.02
2018-07-11T05:29:32.769Z,28.50
2018-07-11T05:32:01.876Z,26.52
2018-07-11T05:34:30.463Z,29.95
2018-07-11T05:36:59.033Z,27.95
2018-07-11T05:39:28.348Z,27.40
2018-07-11T05:41:57.125Z,25.85
2018-07-11T05:44:27.683Z,25.17
2018-07-11T05:47:01.472Z,26.97
2018-07-11T05:49:30.400Z,28.70
2018-07-11T05:51:59.218Z,28.38
2018-07-11T05:54:28.504Z,24.43
2018-07-11T05:56:57.053Z,25.85
2018-07-11T05:59:25.796Z,25.72
2018-07-11T06:01:54.493Z,24.15
2018-07-11T06:04:23.941Z,22.50
2018-07-11T06:06:52.830Z,21.68
2018-07-11T06:09:21.817Z,24.10
2018-07-11T06:11:50.444Z,23.45
2018-07-11T06:14:19.115Z,22.35
2018-07-11T06:16:48.872Z,20.08
2018-07-11T06:19:17.776Z,19.42
2018-07-11T06:21:48.498Z,19.35
2018-07-11T06:24:17.733Z,18.15
2018-07-11T06:26:46.465Z,21.82
2018-07-11T06:29:16.073Z,22.95
2018-07-11T06:31:45.120Z,18.92
2018-07-11T06:34:13.697Z,20.90
2018-07-11T06:36:42.788Z,17.87
2018-07-11T06:39:11.472Z,22.85
2018-07-11T06:41:40.555Z,19.30
2018-07-11T06:44:09.246Z,16.87
2018-07-11T06:46:39.208Z,16.77
2018-07-11T06:49:09.232Z,16.40
2018-07-11T06:51:37.843Z,17.15
2018-07-11T06:54:07.872Z,16.05
2018-07-11T06:56:36.656Z,16.57
2018-07-11T06:59:05.288Z,17.35
2018-07-11T07:01:33.545Z,18.02
2018-07-11T07:04:02.229Z,15.80
2018-07-11T07:06:30.840Z,14.25
2018-07-11T07:08:59.938Z,14.05
2018-07-11T07:11:28.840Z,15.23
2018-07-11T07:13:57.653Z,14.70
2018-07-11T07:16:26.270Z,14.80
2018-07-11T07:18:55.251Z,16.20
2018-07-11T07:21:23.979Z,12.40
2018-07-11T07:23:52.633Z,12.88
2018-07-11T07:26:22.275Z,15.03
2018-07-11T07:28:51.129Z,16.02
2018-07-11T07:31:19.842Z,13.20
2018-07-11T07:33:48.846Z,12.85
2018-07-11T07:36:17.435Z,12.23
2018-07-11T07:38:46.018Z,12.40
2018-07-11T07:41:15.568Z,15.80
2018-07-11T07:43:44.757Z,12.45
2018-07-11T07:46:14.753Z,9.30
2018-07-11T07:48:43.513Z,12.15
2018-07-11T07:51:12.165Z,9.08
2018-07-11T07:53:40.977Z,9.38
2018-07-11T07:56:10.045Z,10.28
2018-07-11T07:58:40.033Z,13.08
2018-07-11T08:01:09.196Z,12.20
2018-07-11T08:03:39.840Z,12.98
2018-07-11T08:06:08.838Z,9.45
2018-07-11T08:08:37.615Z,13.38
2018-07-11T08:11:06.700Z,12.82
2018-07-11T08:13:35.249Z,13.32
2018-07-11T08:16:03.478Z,9.30
2018-07-11T08:18:32.049Z,11.40
2018-07-11T08:21:00.630Z,13.15
2018-07-11T08:23:42.389Z,13.75
2018-07-11T08:26:22.591Z,14.23
2018-07-11T08:29:29.142Z,9.33
2018-07-11T08:32:39.448Z,14.55
2018-07-11T08:35:24.120Z,12.93
2018-07-11T08:38:04.081Z,11.93
2018-07-11T08:40:50.716Z,12.25
2018-07-11T08:43:31.385Z,15.68
2018-07-11T08:46:17.821Z,11.57
2018-07-11T08:49:57.447Z,14.43
2018-07-11T08:52:36.342Z,13.93
2018-07-11T08:55:16.230Z,14.47
2018-07-11T08:59:26.373Z,14.55
2018-07-11T09:04:13.768Z,13.03
2018-07-11T09:06:56.805Z,15.60
2018-07-11T09:09:52.849Z,13.78
2018-07-11T09:14:53.111Z,15.30
2018-07-11T09:18:04.438Z,17.45
2018-07-11T09:22:47.816Z,12.37
2018-07-11T09:25:16.549Z,17.12
2018-07-11T09:27:45.124Z,16.30
2018-07-11T09:30:13.734Z,13.15
2018-07-11T09:32:42.477Z,13.32
2018-07-11T09:35:11.089Z,14.13
2018-07-11T09:37:39.991Z,14.40
2018-07-11T09:40:08.931Z,16.82
2018-07-11T09:42:37.558Z,15.90
2018-07-11T09:45:06.419Z,12.35
2018-07-11T09:47:35.673Z,10.68
2018-07-11T09:50:04.232Z,15.05
2018-07-11T09:52:33.362Z,14.73
2018-07-11T09:55:04.613Z,13.13
2018-07-11T09:57:35.407Z,12.15
2018-07-11T10:00:08.623Z,13.28
2018-07-11T10:02:39.506Z,10.65
2018-07-11T10:05:10.481Z,11.65
2018-07-11T10:07:40.746Z,9.48
2018-07-11T10:10:11.232Z,7.42
2018-07-11T10:12:41.954Z,8.45
2018-07-11T10:15:12.448Z,9.00
2018-07-11T10:17:43.420Z,9.48
2018-07-11T10:20:12.801Z,7.53
2018-07-11T10:22:41.316Z,9.98
2018-07-11T10:25:10.485Z,11.68
2018-07-11T10:27:39.181Z,10.65
2018-07-11T10:30:08.389Z,8.73
2018-07-11T10:32:36.997Z,8.38
2018-07-11T10:35:05.888Z,8.63
2018-07-11T10:37:34.664Z,8.33
2018-07-11T10:40:04.982Z,9.08
2018-07-11T10:42:33.632Z,9.33
2018-07-11T10:45:02.684Z,7.90
2018-07-11T10:47:31.268Z,7.90
2018-07-11T10:49:59.866Z,8.73
2018-07-11T10:52:28.490Z,9.00
2018-07-11T10:54:57.239Z,9.18
2018-07-11T10:57:25.883Z,7.15
2018-07-11T10:59:54.980Z,10.10
2018-07-11T11:02:23.651Z,8.08
2018-07-11T11:04:52.208Z,7.72
2018-07-11T11:07:21.143Z,5.95
2018-07-11T11:09:50.138Z,5.30
2018-07-11T11:12:19.089Z,5.03
2018-07-11T11:14:48.916Z,7.72
2018-07-11T11:17:17.553Z,3.65
2018-07-11T11:19:46.337Z,4.55
2018-07-11T11:22:14.865Z,6.35
2018-07-11T11:24:43.573Z,5.87
2018-07-11T11:27:12.396Z,6.17
2018-07-11T11:29:41.216Z,7.60
2018-07-11T11:32:09.860Z,5.33
2018-07-11T11:34:38.636Z,8.10
2018-07-11T11:37:07.264Z,9.43
2018-07-11T11:39:35.814Z,11.15
2018-07-11T11:42:04.798Z,9.55
2018-07-11T11:44:33.280Z,7.35
2018-07-11T11:47:01.785Z,12.75
2018-07-11T11:49:31.421Z,7.00
2018-07-11T11:52:00.511Z,11.93
2018-07-11T11:54:30.140Z,10.82
2018-07-11T11:56:58.703Z,6.65
2018-07-11T11:59:27.622Z,10.03
2018-07-11T12:01:56.357Z,9.28
2018-07-11T12:04:25.263Z,7.45
2018-07-11T12:06:54.047Z,7.12
2018-07-11T12:09:23.300Z,7.28
2018-07-11T12:11:51.890Z,7.72
2018-07-11T12:14:20.862Z,7.97
2018-07-11T12:16:50.079Z,6.97
2018-07-11T12:19:18.972Z,9.15
2018-07-11T12:21:47.650Z,11.68
2018-07-11T12:24:16.937Z,11.15
2018-07-11T12:26:45.607Z,12.37
2018-07-11T12:29:14.296Z,9.90
2018-07-11T12:31:42.966Z,10.13
2018-07-11T12:34:12.184Z,11.85
2018-07-11T12:36:41.513Z,11.53
2018-07-11T12:39:10.309Z,11.03
2018-07-11T12:41:39.620Z,11.05
2018-07-11T12:44:07.974Z,12.78
2018-07-11T12:46:38.221Z,12.53
2018-07-11T12:49:07.154Z,10.68
2018-07-11T12:51:35.788Z,11.38
2018-07-11T12:54:04.659Z,10.75
2018-07-11T12:56:33.194Z,8.18
2018-07-11T12:59:01.439Z,11.63
2018-07-11T13:01:30.190Z,11.10
2018-07-11T13:03:59.540Z,13.83
2018-07-11T13:06:29.508Z,11.90
2018-07-11T13:08:58.345Z,11.55
2018-07-11T13:11:27.677Z,11.65
2018-07-11T13:13:56.236Z,20.15
2018-07-11T13:16:24.799Z,12.55
2018-07-11T13:18:53.798Z,12.78
2018-07-11T13:21:22.455Z,11.38
2018-07-11T13:23:51.404Z,12.95
2018-07-11T13:26:20.499Z,13.00
2018-07-11T13:28:49.340Z,13.35
2018-07-11T13:31:18.113Z,14.05
2018-07-11T13:33:47.492Z,13.38
2018-07-11T13:36:16.327Z,14.87
2018-07-11T13:38:45.119Z,15.78
2018-07-11T13:41:13.734Z,15.83
2018-07-11T13:43:42.656Z,15.25
2018-07-11T13:46:11.252Z,14.53
2018-07-11T13:48:40.904Z,15.75
2018-07-11T13:51:10.236Z,14.18
2018-07-11T13:53:39.180Z,15.78
2018-07-11T13:56:08.183Z,14.47
2018-07-11T13:58:37.770Z,14.63
2018-07-11T14:01:06.844Z,15.72
2018-07-11T14:03:35.455Z,17.02
2018-07-11T14:06:04.049Z,16.77
2018-07-11T14:08:32.772Z,14.63
2018-07-11T14:11:01.819Z,16.00
2018-07-11T14:13:30.489Z,15.53
2018-07-11T14:15:59.047Z,16.85
2018-07-11T14:18:27.901Z,17.35
2018-07-11T14:20:56.720Z,17.12
2018-07-11T14:23:38.268Z,18.82
2018-07-11T14:26:07.412Z,15.72
2018-07-11T14:28:37.412Z,16.15
2018-07-11T14:31:06.006Z,19.30
2018-07-11T14:33:35.895Z,15.43
2018-07-11T14:36:04.388Z,14.85
2018-07-11T14:38:32.974Z,14.47
2018-07-11T14:41:03.164Z,16.23
2018-07-11T14:43:31.822Z,14.70
2018-07-11T14:46:00.048Z,15.63
2018-07-11T14:48:30.958Z,14.83
2018-07-11T14:51:00.434Z,16.23
2018-07-11T14:53:29.117Z,15.18
2018-07-11T14:55:58.068Z,16.27
2018-07-11T14:58:26.946Z,16.40
2018-07-11T15:00:56.164Z,16.12
2018-07-11T15:03:24.734Z,15.13
2018-07-11T15:05:53.589Z,13.43
2018-07-11T15:08:22.310Z,14.70
2018-07-11T15:10:50.840Z,14.80
2018-07-11T15:13:19.509Z,13.50
2018-07-11T15:15:49.286Z,12.98
2018-07-11T15:18:18.267Z,13.83
2018-07-11T15:20:47.227Z,13.60
2018-07-11T15:23:16.544Z,13.88
2018-07-11T15:25:44.845Z,16.17
2018-07-11T15:28:13.968Z,13.90
2018-07-11T15:30:42.938Z,13.28
2018-07-11T15:33:11.591Z,11.38
2018-07-11T15:35:40.567Z,11.63
2018-07-11T15:38:11.129Z,11.88
2018-07-11T15:40:39.872Z,10.98
2018-07-11T15:43:09.035Z,11.43
2018-07-11T15:45:38.169Z,11.30
2018-07-11T15:48:07.168Z,11.40
2018-07-11T15:50:35.786Z,10.80
2018-07-11T15:53:04.411Z,11.33
2018-07-11T15:55:34.492Z,11.05
2018-07-11T15:58:05.856Z,11.93
2018-07-11T16:00:37.214Z,12.05
2018-07-11T16:03:06.184Z,12.10
2018-07-11T16:05:39.610Z,11.25
2018-07-11T16:08:08.899Z,11.75
2018-07-11T16:10:46.827Z,11.08
2018-07-11T16:13:16.016Z,10.93
2018-07-11T16:15:45.068Z,9.85
2018-07-11T16:18:13.678Z,9.93
2018-07-11T16:20:42.262Z,10.38
2018-07-11T16:23:11.176Z,9.48
2018-07-11T16:25:41.236Z,9.70
2018-07-11T16:28:11.189Z,10.08
2018-07-11T16:30:40.707Z,10.18
2018-07-11T16:33:09.795Z,9.75
2018-07-11T16:35:39.239Z,9.18
2018-07-11T16:38:08.064Z,10.23
2018-07-11T16:40:36.755Z,10.35
2018-07-11T16:43:06.469Z,10.40
2018-07-11T16:45:35.477Z,10.20
2018-07-11T16:48:04.064Z,10.65
2018-07-11T16:50:32.779Z,10.50
2018-07-11T16:53:01.344Z,10.70
2018-07-11T16:55:30.207Z,10.75
2018-07-11T16:57:58.811Z,9.60
2018-07-11T17:00:31.068Z,11.20
2018-07-11T17:03:01.906Z,9.33
2018-07-11T17:05:33.385Z,9.33
2018-07-11T17:08:05.327Z,9.90
2018-07-11T17:10:34.680Z,7.58
2018-07-11T17:13:10.026Z,9.75
2018-07-11T17:15:39.159Z,6.72
2018-07-11T17:18:08.264Z,8.00
2018-07-11T17:20:36.935Z,6.42
2018-07-11T17:23:06.058Z,5.67
2018-07-11T17:25:41.428Z,5.85
2018-07-11T17:28:10.007Z,6.10
2018-07-11T17:30:42.432Z,6.80
2018-07-11T17:33:12.128Z,7.15
2018-07-11T17:35:52.492Z,6.17
2018-07-11T17:38:24.968Z,6.25
2018-07-11T17:40:55.893Z,5.95
2018-07-11T17:43:34.837Z,6.20
2018-07-11T17:46:04.545Z,5.92
2018-07-11T17:49:51.953Z,6.50
2018-07-11T17:52:20.825Z,7.05
2018-07-11T17:55:20.013Z,7.60
2018-07-11T17:57:55.872Z,8.58
2018-07-11T18:00:58.509Z,7.80
2018-07-11T18:03:36.010Z,7.87
2018-07-11T18:06:08.525Z,9.20
2018-07-11T18:08:56.192Z,7.67
2018-07-11T18:11:30.308Z,7.83
2018-07-11T18:13:58.954Z,9.20
2018-07-11T18:16:40.920Z,8.80
2018-07-11T18:20:25.016Z,9.10
2018-07-11T18:22:56.029Z,9.05
2018-07-11T18:25:37.340Z,9.45
2018-07-11T18:28:18.961Z,9.98
2018-07-11T18:30:55.827Z,9.60
2018-07-11T18:34:35.852Z,9.25
2018-07-11T18:37:19.916Z,9.43
2018-07-11T18:39:59.012Z,9.15
2018-07-11T18:42:53.546Z,10.28
2018-07-11T18:45:31.868Z,11.12
2018-07-11T18:48:14.982Z,10.50
2018-07-11T18:51:48.001Z,10.38
2018-07-11T18:54:26.341Z,11.53
2018-07-11T18:57:02.201Z,10.88
2018-07-11T19:00:47.622Z,10.38
2018-07-11T19:03:27.701Z,11.03
2018-07-11T19:06:23.796Z,12.07
2018-07-11T19:09:03.383Z,14.53
2018-07-11T19:11:53.215Z,12.23
2018-07-11T19:14:39.280Z,11.78
2018-07-11T19:19:23.145Z,12.15
2018-07-11T19:22:04.865Z,11.97
2018-07-11T19:24:44.179Z,14.85
2018-07-11T19:27:22.405Z,13.43
2018-07-11T19:29:57.944Z,13.75
2018-07-11T19:33:08.968Z,14.10
2018-07-11T19:35:46.191Z,13.05
2018-07-11T19:38:26.055Z,12.73
2018-07-11T19:42:02.555Z,13.65
2018-07-11T19:44:41.337Z,12.28
2018-07-11T19:47:23.328Z,14.10
2018-07-11T19:49:58.488Z,14.63
2018-07-11T19:52:38.080Z,14.03
2018-07-11T19:55:17.869Z,15.28
2018-07-11T19:57:46.507Z,17.60
2018-07-11T20:00:15.254Z,15.60
2018-07-11T20:02:43.893Z,15.88
2018-07-11T20:05:13.177Z,17.65
2018-07-11T20:07:42.143Z,17.92
2018-07-11T20:10:11.077Z,16.37
2018-07-11T20:12:39.927Z,18.42
2018-07-11T20:15:09.710Z,16.60
2018-07-11T20:17:38.466Z,17.45
2018-07-11T20:20:11.537Z,16.82
2018-07-11T20:22:41.454Z,18.80
2018-07-11T20:25:11.538Z,19.57
2018-07-11T20:27:42.457Z,20.35
2018-07-11T20:30:11.143Z,19.05
2018-07-11T20:32:41.345Z,18.37
2018-07-11T20:35:10.184Z,16.30
2018-07-11T20:37:39.166Z,17.82
2018-07-11T20:40:08.530Z,19.82
2018-07-11T20:42:38.604Z,19.55
2018-07-11T20:45:09.453Z,21.07
2018-07-11T20:47:38.456Z,16.87
2018-07-11T20:50:08.134Z,18.30
2018-07-11T20:52:37.384Z,20.62
2018-07-11T20:55:07.961Z,23.65
2018-07-11T20:57:36.585Z,25.17
2018-07-11T21:00:17.128Z,20.68
2018-07-11T21:05:03.612Z,20.27
2018-07-11T21:07:45.239Z,21.12
2018-07-11T21:10:27.476Z,17.75
2018-07-11T21:13:16.584Z,22.77
2018-07-11T21:18:10.656Z,18.20
2018-07-11T21:20:41.760Z,20.08
2018-07-11T21:23:14.128Z,18.05
2018-07-11T21:25:45.100Z,18.65
2018-07-11T21:28:15.804Z,19.77
2018-07-11T21:30:45.996Z,21.35
2018-07-11T21:33:17.455Z,17.15
2018-07-11T21:35:48.775Z,18.90
2018-07-11T21:38:18.951Z,20.35
2018-07-11T21:40:51.005Z,19.87
2018-07-11T21:43:22.390Z,20.00
2018-07-11T21:45:53.329Z,19.67
2018-07-11T21:48:23.792Z,19.35
2018-07-11T21:50:54.680Z,18.42
2018-07-11T21:53:24.566Z,19.35
2018-07-11T21:55:54.740Z,19.87
2018-07-11T21:58:24.802Z,21.90
2018-07-11T22:00:57.981Z,19.35
2018-07-11T22:03:29.980Z,20.32
2018-07-11T22:06:00.517Z,18.67
2018-07-11T22:08:31.147Z,21.12
2018-07-11T22:11:01.604Z,19.48
2018-07-11T22:13:31.072Z,21.60
2018-07-11T22:16:02.366Z,23.67
2018-07-11T22:18:45.195Z,21.97
2018-07-11T22:21:14.670Z,21.57
2018-07-11T22:23:43.279Z,21.35
2018-07-11T22:26:12.101Z,24.55
2018-07-11T22:28:41.109Z,22.93
2018-07-11T22:31:09.640Z,24.72
2018-07-11T22:33:38.672Z,24.52
2018-07-11T22:36:10.533Z,27.73
2018-07-11T22:38:40.382Z,24.77
2018-07-11T22:41:09.642Z,23.98
2018-07-11T22:43:38.116Z,26.20
2018-07-11T22:46:06.617Z,22.60
2018-07-11T22:48:35.044Z,24.67
2018-07-11T22:51:03.992Z,26.95
2018-07-11T22:53:32.784Z,26.93
2018-07-11T22:56:01.487Z,26.00
2018-07-11T22:58:31.146Z,28.25
2018-07-11T23:00:59.684Z,25.20
2018-07-11T23:03:27.901Z,26.02
2018-07-11T23:05:55.572Z,29.15
2018-07-11T23:08:23.488Z,28.52
2018-07-11T23:10:50.893Z,27.82
2018-07-11T23:13:18.563Z,28.90
2018-07-11T23:16:10.136Z,31.40
2018-07-11T23:18:42.029Z,24.87
2018-07-11T23:21:09.722Z,29.00
2018-07-11T23:23:37.252Z,31.82
2018-07-11T23:26:04.708Z,28.70
2018-07-11T23:28:32.401Z,26.52
2018-07-11T23:30:59.820Z,27.98
2018-07-11T23:33:27.861Z,26.33
2018-07-11T23:38:44.830Z,28.85
2018-07-11T23:41:14.246Z,33.38
2018-07-11T23:43:42.106Z,30.90
2018-07-11T23:46:10.208Z,31.70
2018-07-11T23:48:38.592Z,36.63
2018-07-11T23:51:07.807Z,31.90
2018-07-11T23:53:37.841Z,39.78
2018-07-11T23:56:06.093Z,32.88
2018-07-11T23:58:34.566Z,35.28
